Time;durP1;ratioP1;P1;durP2;ratioP2;P2;SDS_P1;SDS_P2;PMS_P1;PMS_P2;Temp;Humidity;BMP_temperature;BMP_pressure;BME280_temperature;BME280_humidity;BME280_pressure;Samples;Min_cycle;Max_cycle;Signal;HPM_P1;HPM_P2
2023/03/20 05:08:26;;;;;;;14.35;3.45;;;14.60;69.20;;;;;;4749639;30;20078;-76
2023/03/20 05:10:52;;;;;;;19.83;4.50;;;14.70;69.10;;;;;;4755304;30;20056;-78
2023/03/20 05:13:18;;;;;;;19.42;3.70;;;14.70;69.10;;;;;;4755455;30;20052;-79
2023/03/20 05:15:43;;;;;;;20.13;4.07;;;14.80;68.90;;;;;;4756017;30;20052;-77
2023/03/20 05:18:09;;;;;;;38.30;6.05;;;14.80;69.20;;;;;;4755602;30;20425;-76
2023/03/20 05:20:35;;;;;;;25.27;5.25;;;14.90;69.40;;;;;;4754602;30;20091;-78
2023/03/20 05:23:02;;;;;;;21.92;4.72;;;15.00;69.50;;;;;;4753892;30;20040;-77
2023/03/20 05:25:28;;;;;;;25.15;4.93;;;15.10;69.80;;;;;;4739196;30;20059;-78
2023/03/20 05:27:53;;;;;;;29.02;4.85;;;15.20;70.20;;;;;;4755232;30;20052;-77
2023/03/20 05:30:19;;;;;;;21.90;4.65;;;15.30;70.40;;;;;;4752454;30;20066;-77
2023/03/20 05:32:48;;;;;;;22.02;5.32;;;15.50;70.40;;;;;;4747385;30;20377;-77
2023/03/20 05:35:13;;;;;;;23.42;4.13;;;15.60;70.30;;;;;;4755379;30;20068;-78
2023/03/20 05:37:39;;;;;;;22.92;5.25;;;15.60;70.30;;;;;;4754443;30;20052;-77
2023/03/20 05:40:06;;;;;;;26.73;5.07;;;15.70;70.20;;;;;;4754968;30;20384;-80
2023/03/20 05:42:32;;;;;;;23.45;4.15;;;15.70;70.10;;;;;;4755368;30;20059;-78
2023/03/20 05:44:58;;;;;;;19.52;5.30;;;15.80;70.50;;;;;;4739405;30;20060;-78
2023/03/20 05:47:23;;;;;;;16.70;4.03;;;15.80;70.30;;;;;;4752545;30;20100;-81
2023/03/20 05:49:49;;;;;;;15.52;5.07;;;15.90;70.40;;;;;;4754156;30;20092;-81
2023/03/20 05:52:15;;;;;;;24.70;5.05;;;15.90;70.30;;;;;;4739132;30;20147;-80
2023/03/20 05:54:41;;;;;;;24.95;5.18;;;15.90;71.10;;;;;;4754798;30;20525;-80
2023/03/20 05:57:06;;;;;;;31.98;6.43;;;15.90;70.70;;;;;;4753840;30;20056;-82
2023/03/20 05:59:32;;;;;;;33.72;5.75;;;15.90;71.00;;;;;;4738838;30;20460;-79
2023/03/20 06:01:58;;;;;;;30.13;5.43;;;15.90;70.80;;;;;;4739123;30;20059;-79
2023/03/20 06:04:24;;;;;;;35.55;5.57;;;15.90;70.80;;;;;;4754634;30;20103;-80
2023/03/20 06:06:50;;;;;;;29.77;5.15;;;15.90;71.00;;;;;;4754142;30;20070;-78
2023/03/20 06:09:16;;;;;;;34.30;5.00;;;15.90;70.90;;;;;;4754554;30;20144;-80
2023/03/20 06:11:41;;;;;;;26.98;6.63;;;15.80;70.90;;;;;;4754579;30;20135;-78
2023/03/20 06:14:07;;;;;;;28.65;6.03;;;15.80;71.00;;;;;;4739292;30;20397;-79
2023/03/20 06:17:16;;;;;;;;;;;;;;;;;;;;;
2023/03/20 06:19:48;;;;;;;24.02;5.53;;;15.80;71.60;;;;;;4754435;30;20056;-81
2023/03/20 06:22:14;;;;;;;23.27;5.45;;;15.80;71.10;;;;;;4723866;30;20052;-78
2023/03/20 06:24:40;;;;;;;26.48;5.70;;;15.80;71.20;;;;;;4747425;30;20056;-80
2023/03/20 06:27:05;;;;;;;37.17;7.30;;;15.80;71.20;;;;;;4738669;30;20052;-84
2023/03/20 06:29:31;;;;;;;25.63;6.18;;;15.90;71.60;;;;;;4738931;30;20052;-84
2023/03/20 06:31:57;;;;;;;18.02;5.45;;;15.90;71.40;;;;;;4738611;30;20056;-80
2023/03/20 06:34:28;;;;;;;21.58;7.03;;;15.90;70.70;;;;;;4754542;30;20049;-81
2023/03/20 06:36:55;;;;;;;23.58;8.20;;;15.90;69.60;;;;;;4738517;30;20427;-79
2023/03/20 06:39:23;;;;;;;28.75;7.63;;;15.90;68.60;;;;;;4738448;30;20051;-75
2023/03/20 06:41:49;;;;;;;27.15;8.43;;;15.90;68.70;;;;;;4752352;30;20046;-81
2023/03/20 06:44:17;;;;;;;22.40;6.70;;;15.90;68.80;;;;;;4724513;30;20444;-78
2023/03/20 06:46:43;;;;;;;25.98;7.60;;;15.80;67.80;;;;;;4753937;30;20453;-78
2023/03/20 06:49:08;;;;;;;28.30;7.30;;;15.90;68.60;;;;;;4738359;30;20044;-79
2023/03/20 06:51:34;;;;;;;31.55;8.43;;;15.90;69.00;;;;;;4751808;30;20047;-78
2023/03/20 06:54:00;;;;;;;25.70;6.30;;;15.90;69.20;;;;;;4753491;30;20496;-80
2023/03/20 06:56:38;;;;;;;28.45;6.57;;;16.00;69.30;;;;;;4752856;30;20052;-85
2023/03/20 06:59:04;;;;;;;33.85;6.78;;;16.00;69.40;;;;;;4752223;30;20056;-77
2023/03/20 07:01:30;;;;;;;23.42;7.63;;;16.00;69.30;;;;;;4734758;30;20484;-78
2023/03/20 07:03:55;;;;;;;21.77;6.95;;;16.00;68.70;;;;;;4753894;30;20124;-80
2023/03/20 07:06:21;;;;;;;31.10;8.65;;;15.90;68.30;;;;;;4754243;30;20055;-77
2023/03/20 07:08:47;;;;;;;30.27;7.57;;;15.90;68.20;;;;;;4753577;30;20172;-79
2023/03/20 07:11:13;;;;;;;27.90;7.57;;;15.90;68.30;;;;;;4752737;30;20460;-82
2023/03/20 07:13:39;;;;;;;26.35;7.22;;;15.90;68.40;;;;;;4753718;30;20478;-80
2023/03/20 07:16:06;;;;;;;24.45;7.00;;;15.90;68.50;;;;;;4754057;30;20032;-80
2023/03/20 07:18:32;;;;;;;23.80;7.32;;;15.90;68.50;;;;;;4755924;30;20047;-79
2023/03/20 07:21:01;;;;;;;27.50;7.15;;;15.90;68.50;;;;;;4756983;30;20469;-79
2023/03/20 07:23:28;;;;;;;24.75;6.88;;;15.80;68.30;;;;;;4757121;30;20071;-80
2023/03/20 07:25:53;;;;;;;21.40;5.55;;;15.90;68.40;;;;;;4757177;30;20117;-80
2023/03/20 07:28:19;;;;;;;18.58;5.93;;;15.90;68.30;;;;;;4757225;30;20060;-79
2023/03/20 07:30:45;;;;;;;20.38;6.03;;;15.90;68.30;;;;;;4757162;30;20091;-79
2023/03/20 07:33:11;;;;;;;21.00;5.68;;;15.80;68.20;;;;;;4744821;30;20051;-78
2023/03/20 07:35:38;;;;;;;18.85;6.20;;;15.80;68.20;;;;;;4757249;30;20052;-79
2023/03/20 07:38:07;;;;;;;16.58;5.40;;;15.80;68.20;;;;;;4756278;30;20155;-80
2023/03/20 07:40:32;;;;;;;17.40;5.00;;;15.80;68.20;;;;;;4755934;30;20055;-79
2023/03/20 07:42:58;;;;;;;14.70;5.68;;;15.80;68.20;;;;;;4740862;30;20048;-80
2023/03/20 07:45:24;;;;;;;19.58;5.95;;;15.70;68.10;;;;;;4741826;30;20044;-77
2023/03/20 07:47:50;;;;;;;17.20;5.85;;;15.70;68.10;;;;;;4727098;30;20588;-78
2023/03/20 07:50:16;;;;;;;17.25;5.75;;;15.60;68.30;;;;;;4741022;30;20044;-81
2023/03/20 07:53:08;;;;;;;41.08;7.35;;;15.60;68.50;;;;;;4740593;30;20087;-79
2023/03/20 07:55:33;;;;;;;41.65;8.15;;;15.60;68.70;;;;;;4753265;30;20147;-79
2023/03/20 07:58:02;;;;;;;34.08;6.38;;;15.60;68.90;;;;;;4754026;30;20123;-78
2023/03/20 08:00:28;;;;;;;27.85;6.97;;;15.50;69.00;;;;;;4756430;30;20051;-79
2023/03/20 08:02:55;;;;;;;31.27;7.93;;;15.60;70.00;;;;;;4756882;30;20088;-82
2023/03/20 08:05:21;;;;;;;27.67;5.38;;;15.60;70.60;;;;;;4756632;30;20044;-79
2023/03/20 08:07:48;;;;;;;19.02;5.80;;;15.70;70.10;;;;;;4754426;30;20129;-78
2023/03/20 08:10:14;;;;;;;28.25;6.43;;;15.70;69.80;;;;;;4756456;30;20131;-76
2023/03/20 08:12:39;;;;;;;22.25;5.80;;;15.80;70.10;;;;;;4748931;30;20140;-73
2023/03/20 08:15:05;;;;;;;22.35;6.10;;;15.90;70.00;;;;;;4723356;30;20048;-80
2023/03/20 08:17:34;;;;;;;25.42;5.97;;;15.90;69.90;;;;;;4718657;30;20128;-76
2023/03/20 08:20:00;;;;;;;23.50;5.82;;;15.90;69.80;;;;;;4756329;30;20144;-78
2023/03/20 08:22:26;;;;;;;29.17;6.15;;;15.90;69.80;;;;;;4755993;30;20056;-79
2023/03/20 08:24:51;;;;;;;16.48;5.43;;;15.90;69.60;;;;;;4756586;30;20357;-80
2023/03/20 08:27:17;;;;;;;19.42;5.45;;;16.00;69.20;;;;;;4755404;30;20067;-80
2023/03/20 08:29:43;;;;;;;16.25;5.65;;;16.00;69.00;;;;;;4755711;30;20058;-82
2023/03/20 08:32:09;;;;;;;20.15;4.90;;;16.00;68.90;;;;;;4754815;30;20091;-84
2023/03/20 08:34:37;;;;;;;16.17;4.78;;;15.90;68.60;;;;;;4740225;30;20102;-82
2023/03/20 08:37:03;;;;;;;11.63;4.78;;;16.00;68.70;;;;;;4755853;30;20120;-77
2023/03/20 08:39:29;;;;;;;11.07;3.90;;;15.90;68.60;;;;;;4756005;30;20052;-76
2023/03/20 08:41:55;;;;;;;12.50;4.30;;;15.90;68.70;;;;;;4755842;30;20055;-79
2023/03/20 08:44:21;;;;;;;10.80;4.25;;;15.90;68.70;;;;;;4740856;30;20431;-76
2023/03/20 08:46:46;;;;;;;10.85;3.90;;;15.90;68.60;;;;;;4755842;30;20048;-79
2023/03/20 08:49:13;;;;;;;12.95;4.30;;;15.90;68.50;;;;;;4739902;30;20127;-76
2023/03/20 08:51:38;;;;;;;10.63;4.45;;;15.90;68.60;;;;;;4756332;30;20056;-76
2023/03/20 08:54:04;;;;;;;10.30;4.60;;;15.90;68.50;;;;;;4756058;30;20430;-75
2023/03/20 08:56:30;;;;;;;14.35;4.95;;;16.00;68.70;;;;;;4755674;30;20422;-80
2023/03/20 08:58:59;;;;;;;12.13;4.70;;;15.90;68.40;;;;;;4755784;30;20056;-80
2023/03/20 09:01:25;;;;;;;11.77;4.75;;;15.90;68.40;;;;;;4739848;30;20084;-76
2023/03/20 09:03:51;;;;;;;16.88;4.57;;;15.90;68.30;;;;;;4755645;30;20136;-76
2023/03/20 09:06:17;;;;;;;11.57;4.43;;;15.90;68.10;;;;;;4755323;30;20048;-74
2023/03/20 09:08:43;;;;;;;12.10;4.95;;;15.90;67.90;;;;;;4755533;30;20060;-77
2023/03/20 09:11:09;;;;;;;10.63;4.22;;;15.90;68.00;;;;;;4754001;30;20498;-75
2023/03/20 09:13:35;;;;;;;14.80;4.07;;;15.90;67.60;;;;;;4753139;30;20468;-78
2023/03/20 09:16:02;;;;;;;9.20;3.92;;;15.90;67.40;;;;;;4753638;30;20088;-75
2023/03/20 09:18:27;;;;;;;11.48;4.45;;;15.80;67.50;;;;;;4754353;30;20059;-82
2023/03/20 09:20:55;;;;;;;17.55;4.57;;;15.80;67.90;;;;;;4724037;30;20048;-76
2023/03/20 09:23:21;;;;;;;13.13;4.20;;;15.80;68.20;;;;;;4755160;30;20127;-79
2023/03/20 09:25:47;;;;;;;11.95;4.40;;;15.80;67.90;;;;;;4754970;30;20437;-78
2023/03/20 09:28:14;;;;;;;13.35;3.80;;;15.80;67.70;;;;;;4755047;30;20469;-79
2023/03/20 09:30:42;;;;;;;10.38;3.42;;;15.80;67.40;;;;;;4737508;30;20074;-77
2023/03/20 09:33:08;;;;;;;16.08;4.00;;;15.80;67.60;;;;;;4753639;30;20083;-82
2023/03/20 09:35:33;;;;;;;17.15;4.50;;;15.80;67.60;;;;;;4724380;30;20079;-78
2023/03/20 09:37:59;;;;;;;13.88;4.05;;;15.90;67.60;;;;;;4754748;30;20056;-77
2023/03/20 09:40:36;;;;;;;13.25;4.10;;;15.90;67.40;;;;;;4754282;30;20056;-78
2023/03/20 09:43:12;;;;;;;10.50;3.88;;;16.10;67.30;;;;;;4733623;30;20056;-78
2023/03/20 09:45:53;;;;;;;24.00;4.03;;;16.10;67.20;;;;;;4738920;30;20147;-82
2023/03/20 09:49:05;;;;;;;17.20;3.78;;;16.20;67.20;;;;;;4739867;30;20544;-79
2023/03/20 09:51:39;;;;;;;10.05;3.10;;;16.20;67.20;;;;;;4753801;30;20102;-77
2023/03/20 09:54:25;;;;;;;10.50;2.78;;;16.20;67.30;;;;;;4739094;30;20048;-78
2023/03/20 09:56:53;;;;;;;10.13;2.67;;;16.20;67.10;;;;;;4752856;30;20055;-79
2023/03/20 09:59:20;;;;;;;17.63;3.85;;;16.20;67.30;;;;;;4772395;30;20123;-78
2023/03/20 10:02:05;;;;;;;12.57;3.53;;;16.20;67.40;;;;;;4773238;30;20051;-82
2023/03/20 10:04:32;;;;;;;12.77;2.67;;;16.20;67.30;;;;;;4748544;30;20356;-77
2023/03/20 10:06:58;;;;;;;12.73;3.40;;;16.20;67.40;;;;;;4739002;30;20059;-78
2023/03/20 10:09:26;;;;;;;18.95;3.60;;;16.20;67.40;;;;;;4753960;30;20052;-80
2023/03/20 10:12:12;;;;;;;12.63;2.88;;;16.20;67.40;;;;;;4754553;30;20066;-80
2023/03/20 10:14:41;;;;;;;10.60;3.20;;;16.20;67.40;;;;;;4754289;30;20063;-79
2023/03/20 10:17:16;;;;;;;16.50;3.47;;;16.20;67.40;;;;;;4724125;30;20052;-81
2023/03/20 10:19:48;;;;;;;16.92;3.60;;;16.20;67.30;;;;;;4753846;30;20048;-78
2023/03/20 10:22:33;;;;;;;11.40;2.80;;;16.30;67.30;;;;;;4738262;30;20043;-78
2023/03/20 10:25:14;;;;;;;11.68;3.45;;;16.40;66.90;;;;;;4754344;30;20044;-78
2023/03/20 10:27:48;;;;;;;13.60;2.90;;;16.50;66.60;;;;;;4754109;30;20064;-77
2023/03/20 10:30:19;;;;;;;;;;;16.60;66.50;;;;;;4754901;30;20373;-77
2023/03/20 10:33:23;;;;;;;12.82;2.80;;;16.70;66.10;;;;;;4754339;30;19995;-78
2023/03/20 10:36:08;;;;;;;12.38;3.25;;;16.70;65.80;;;;;;4738687;30;20472;-77
2023/03/20 10:39:05;;;;;;;8.25;3.17;;;16.70;65.40;;;;;;4754128;30;20090;-77
2023/03/20 10:41:35;;;;;;;7.70;3.42;;;16.70;64.30;;;;;;4753695;30;20108;-77
2023/03/20 10:44:01;;;;;;;9.82;3.45;;;16.70;64.20;;;;;;4738577;30;20132;-77
2023/03/20 10:46:30;;;;;;;8.05;2.88;;;16.60;63.70;;;;;;4753957;30;20107;-78
2023/03/20 10:49:04;;;;;;;15.82;4.13;;;16.60;63.30;;;;;;4753846;30;20060;-75
2023/03/20 10:51:44;;;;;;;11.55;3.95;;;16.60;63.40;;;;;;4754634;30;20056;-75
2023/03/20 10:54:41;;;;;;;13.73;3.50;;;16.50;62.80;;;;;;4757750;30;20133;-75
2023/03/20 10:57:16;;;;;;;12.77;3.75;;;16.40;62.80;;;;;;4757660;30;20060;-77
2023/03/20 10:59:50;;;;;;;9.63;2.35;;;16.40;63.20;;;;;;4751979;30;20057;-74
2023/03/20 11:02:19;;;;;;;10.50;2.85;;;16.30;63.70;;;;;;4757710;30;20052;-76
2023/03/20 11:04:44;;;;;;;12.02;2.92;;;16.30;63.90;;;;;;4755597;30;20066;-75
2023/03/20 11:07:32;;;;;;;13.18;2.97;;;16.30;64.00;;;;;;4757709;30;20438;-76
2023/03/20 11:10:04;;;;;;;14.30;3.17;;;16.30;64.10;;;;;;4751900;30;20069;-75
2023/03/20 11:12:46;;;;;;;13.23;2.50;;;16.30;64.30;;;;;;4741830;30;20064;-76
2023/03/20 11:15:41;;;;;;;12.73;3.38;;;16.30;64.50;;;;;;4757418;30;20066;-76
2023/03/20 11:18:14;;;;;;;13.55;2.95;;;16.30;64.60;;;;;;4742431;30;20081;-75
2023/03/20 11:20:50;;;;;;;10.52;2.55;;;16.30;64.80;;;;;;4756747;30;20054;-78
2023/03/20 11:23:19;;;;;;;10.73;2.63;;;16.30;65.00;;;;;;4757181;30;20476;-76
2023/03/20 11:25:56;;;;;;;11.55;3.17;;;16.40;65.10;;;;;;4751612;30;20063;-76
2023/03/20 11:28:34;;;;;;;17.83;2.60;;;16.40;65.10;;;;;;4743513;30;20135;-75
2023/03/20 11:31:12;;;;;;;15.13;2.78;;;16.40;65.10;;;;;;4753638;30;20075;-77
2023/03/20 11:33:42;;;;;;;9.80;2.47;;;16.40;65.10;;;;;;4753979;30;20123;-78
2023/03/20 11:36:32;;;;;;;11.05;2.75;;;16.40;65.20;;;;;;4756920;30;20516;-78
2023/03/20 11:39:04;;;;;;;15.70;2.55;;;16.40;65.40;;;;;;4741905;30;20056;-78
2023/03/20 11:41:30;;;;;;;11.55;2.47;;;16.40;65.60;;;;;;4757436;30;20376;-78
2023/03/20 11:43:56;;;;;;;15.48;2.85;;;16.30;65.70;;;;;;4757201;30;20118;-78
2023/03/20 11:46:25;;;;;;;15.05;3.30;;;16.30;65.90;;;;;;4756126;30;20060;-77
2023/03/20 11:49:20;;;;;;;20.83;2.35;;;16.30;65.90;;;;;;4726737;30;20074;-80
2023/03/20 11:51:46;;;;;;;10.65;2.80;;;16.30;65.90;;;;;;4723950;30;20060;-77
2023/03/20 11:54:19;;;;;;;10.13;2.42;;;16.30;66.10;;;;;;4723405;30;20114;-77
2023/03/20 11:56:57;;;;;;;13.90;2.70;;;16.30;66.30;;;;;;4739088;30;20098;-78
2023/03/20 11:59:30;;;;;;;9.25;1.75;;;16.30;66.30;;;;;;4738868;30;20061;-81
2023/03/20 12:01:57;;;;;;;16.63;2.67;;;16.20;66.30;;;;;;4723708;30;20060;-76
2023/03/20 12:04:30;;;;;;;7.43;1.55;;;16.30;66.40;;;;;;4738330;30;20099;-79
2023/03/20 12:07:02;;;;;;;11.52;2.15;;;16.20;66.50;;;;;;4741231;30;20500;-78
2023/03/20 12:09:44;;;;;;;13.00;2.33;;;16.20;66.70;;;;;;4755861;30;20123;-75
2023/03/20 12:12:33;;;;;;;10.90;1.63;;;16.20;67.80;;;;;;4756329;30;20060;-74
2023/03/20 12:15:19;;;;;;;9.15;1.60;;;16.30;68.20;;;;;;4733523;30;20052;-77
2023/03/20 12:17:57;;;;;;;8.25;1.83;;;16.30;69.00;;;;;;4740509;30;20457;-80
2023/03/20 12:20:31;;;;;;;11.23;2.25;;;16.30;69.20;;;;;;4740978;30;20059;-78
2023/03/20 12:23:13;;;;;;;8.80;1.42;;;16.40;68.50;;;;;;4734087;30;20041;-77
2023/03/20 12:26:02;;;;;;;7.20;1.77;;;16.50;68.30;;;;;;4744347;30;20052;-78
2023/03/20 12:28:40;;;;;;;9.32;1.50;;;16.50;68.20;;;;;;4756004;30;20062;-77
2023/03/20 12:31:38;;;;;;;5.10;1.58;;;16.50;68.10;;;;;;4756105;30;20170;-77
2023/03/20 12:34:28;;;;;;;7.03;1.58;;;16.50;67.90;;;;;;4756210;30;20044;-77
2023/03/20 12:36:58;;;;;;;6.43;1.40;;;16.50;67.90;;;;;;4755918;30;20054;-79
2023/03/20 12:39:33;;;;;;;4.68;1.25;;;16.50;67.90;;;;;;4755776;30;20063;-79
2023/03/20 12:42:25;;;;;;;4.88;1.33;;;16.50;67.80;;;;;;4740658;30;20433;-80
2023/03/20 12:44:59;;;;;;;6.25;1.38;;;16.50;67.90;;;;;;4755892;30;20473;-80
2023/03/20 12:47:50;;;;;;;4.13;0.93;;;16.50;67.90;;;;;;4754935;30;20052;-76
2023/03/20 12:50:22;;;;;;;6.68;1.55;;;16.50;67.40;;;;;;4750525;30;20060;-77
2023/03/20 12:53:25;;;;;;;4.65;1.17;;;16.50;66.80;;;;;;4738710;30;20056;-81
2023/03/20 12:56:03;;;;;;;4.70;1.33;;;16.50;67.20;;;;;;4755654;30;20516;-78
2023/03/20 12:58:47;;;;;;;4.18;1.20;;;16.50;67.00;;;;;;4739849;30;20816;-78
2023/03/20 13:01:20;;;;;;;9.43;1.52;;;16.40;66.70;;;;;;4756287;30;20452;-76
2023/03/20 13:04:34;;;;;;;9.07;1.73;;;16.40;66.60;;;;;;4756259;30;20070;-77
2023/03/20 13:07:01;;;;;;;6.35;1.13;;;16.30;66.70;;;;;;4755585;30;20060;-76
2023/03/20 13:09:42;;;;;;;7.18;2.00;;;16.30;66.80;;;;;;4754970;30;20060;-76
2023/03/20 13:12:14;;;;;;;4.00;1.25;;;16.30;66.80;;;;;;4748335;30;20063;-76
2023/03/20 13:15:01;;;;;;;3.85;1.35;;;16.30;66.80;;;;;;4755396;30;20500;-78
2023/03/20 13:17:45;;;;;;;4.32;1.30;;;16.30;66.90;;;;;;4755330;30;20067;-76
2023/03/20 13:20:23;;;;;;;4.43;1.35;;;16.20;66.70;;;;;;4755476;30;20067;-76
2023/03/20 13:23:22;;;;;;;7.18;1.35;;;16.20;66.70;;;;;;4755232;30;20060;-78
2023/03/20 13:26:06;;;;;;;3.38;1.20;;;16.20;66.80;;;;;;4755343;30;20131;-79
2023/03/20 13:28:47;;;;;;;3.28;1.20;;;16.10;66.90;;;;;;4755385;30;20542;-76
2023/03/20 13:31:35;;;;;;;3.75;1.00;;;16.10;66.90;;;;;;4755238;30;20056;-78
2023/03/20 13:34:24;;;;;;;3.50;1.65;;;16.10;67.10;;;;;;4755293;30;20139;-78
2023/03/20 13:37:10;;;;;;;9.93;1.67;;;16.00;66.70;;;;;;4755235;30;20056;-77
2023/03/20 13:39:43;;;;;;;7.22;1.92;;;16.00;66.70;;;;;;4749546;30;20067;-77
2023/03/20 13:42:17;;;;;;;16.92;2.47;;;16.00;67.30;;;;;;4754278;30;20519;-77
2023/03/20 13:44:44;;;;;;;19.70;2.13;;;16.00;67.80;;;;;;4754931;30;20059;-77
2023/03/20 13:47:25;;;;;;;13.27;2.03;;;16.10;68.20;;;;;;4755051;30;20103;-79
2023/03/20 13:50:11;;;;;;;18.05;3.08;;;16.20;68.60;;;;;;4754687;30;20410;-75
2023/03/20 13:52:43;;;;;;;15.85;2.22;;;16.20;68.70;;;;;;4745460;30;20469;-76
2023/03/20 13:55:20;;;;;;;20.98;2.20;;;16.20;68.80;;;;;;4754950;30;20503;-76
2023/03/20 13:57:54;;;;;;;30.83;3.58;;;16.30;69.10;;;;;;4754759;30;20064;-74
2023/03/20 14:00:58;;;;;;;18.42;2.30;;;16.40;69.10;;;;;;4754877;30;20082;-74
2023/03/20 14:03:42;;;;;;;14.95;2.35;;;16.40;69.30;;;;;;4754486;30;20052;-76
2023/03/20 14:06:43;;;;;;;21.52;2.45;;;16.40;69.20;;;;;;4754756;30;20492;-75
2023/03/20 14:09:28;;;;;;;17.25;2.05;;;16.40;69.50;;;;;;4741587;30;20073;-74
2023/03/20 14:11:58;;;;;;;15.93;2.10;;;16.40;69.50;;;;;;4736629;30;20064;-75
2023/03/20 14:14:30;;;;;;;21.40;2.10;;;16.40;69.60;;;;;;4736975;30;20055;-74
2023/03/20 14:17:13;;;;;;;24.52;2.92;;;16.40;70.30;;;;;;4736777;30;20452;-74
2023/03/20 14:19:39;;;;;;;21.65;3.50;;;16.50;69.70;;;;;;4754187;30;20548;-73
2023/03/20 14:22:05;;;;;;;20.95;2.63;;;16.50;69.70;;;;;;4754583;30;20135;-74
2023/03/20 14:24:35;;;;;;;37.75;3.97;;;16.50;69.80;;;;;;4754662;30;20076;-74
2023/03/20 14:27:02;;;;;;;27.77;4.13;;;16.50;70.00;;;;;;4738685;30;20060;-76
2023/03/20 14:29:32;;;;;;;35.88;4.25;;;16.50;70.00;;;;;;4754310;30;20056;-76
2023/03/20 14:32:11;;;;;;;28.45;3.20;;;16.50;69.90;;;;;;4754928;30;20422;-74
2023/03/20 14:34:51;;;;;;;36.20;3.80;;;16.50;69.90;;;;;;4739368;30;20342;-76
2023/03/20 14:37:36;;;;;;;24.38;3.53;;;16.50;69.90;;;;;;4738607;30;20094;-74
2023/03/20 14:40:07;;;;;;;31.27;4.28;;;16.50;69.90;;;;;;4730124;30;20052;-73
2023/03/20 14:42:54;;;;;;;25.23;3.05;;;16.50;70.00;;;;;;4736768;30;20049;-75
2023/03/20 14:45:37;;;;;;;20.40;2.63;;;16.50;69.70;;;;;;4736995;30;20242;-74
2023/03/20 14:48:27;;;;;;;17.58;2.35;;;16.50;69.50;;;;;;4727263;30;20060;-79
2023/03/20 14:51:10;;;;;;;18.10;2.65;;;16.50;69.50;;;;;;4716561;30;20533;-75
2023/03/20 14:53:39;;;;;;;16.55;2.47;;;16.60;69.40;;;;;;4735978;30;20127;-73
2023/03/20 14:56:08;;;;;;;6.88;1.80;;;16.70;69.30;;;;;;4737326;30;20086;-74
2023/03/20 14:58:39;;;;;;;10.90;1.73;;;16.70;69.00;;;;;;4736383;30;20552;-80
2023/03/20 15:01:17;;;;;;;13.88;2.30;;;16.70;68.50;;;;;;4736340;30;20449;-75
2023/03/20 15:04:05;;;;;;;11.88;1.65;;;16.80;68.10;;;;;;4736556;30;20141;-75
2023/03/20 15:06:33;;;;;;;18.15;1.65;;;16.80;67.60;;;;;;4736301;30;20077;-75
2023/03/20 15:09:05;;;;;;;6.05;1.00;;;16.80;67.20;;;;;;4735851;30;20411;-75
2023/03/20 15:11:33;;;;;;;7.38;1.23;;;16.80;66.80;;;;;;4736815;30;20385;-75
2023/03/20 15:14:02;;;;;;;6.30;1.10;;;16.80;66.40;;;;;;4721020;30;20063;-75
2023/03/20 15:16:33;;;;;;;6.93;1.40;;;16.90;66.10;;;;;;4736528;30;20084;-75
2023/03/20 15:19:00;;;;;;;8.60;1.38;;;16.80;65.80;;;;;;4734707;30;20064;-75
2023/03/20 15:21:37;;;;;;;11.13;1.55;;;16.90;66.00;;;;;;4719694;30;20107;-75
2023/03/20 15:24:03;;;;;;;10.15;1.50;;;16.90;66.00;;;;;;4736146;30;20049;-75
2023/03/20 15:26:33;;;;;;;9.85;1.42;;;16.90;66.20;;;;;;4736107;30;20049;-80
2023/03/20 15:29:11;;;;;;;9.38;1.42;;;16.80;66.30;;;;;;4736571;30;20063;-77
2023/03/20 15:31:38;;;;;;;13.40;1.65;;;16.80;66.30;;;;;;4736448;30;20060;-76
2023/03/20 15:34:33;;;;;;;14.93;1.55;;;16.90;67.00;;;;;;4736204;30;20067;-81
2023/03/20 15:37:01;;;;;;;8.52;1.98;;;16.90;67.40;;;;;;4709283;30;20200;-74
2023/03/20 15:39:42;;;;;;;13.70;1.50;;;16.90;67.30;;;;;;4735666;30;20045;-75
2023/03/20 15:42:17;;;;;;;13.35;1.85;;;16.90;67.40;;;;;;4731752;30;20402;-73
2023/03/20 15:44:47;;;;;;;9.73;1.00;;;16.90;67.50;;;;;;4729065;30;20073;-73
2023/03/20 15:47:21;;;;;;;5.72;0.93;;;16.90;67.50;;;;;;4730260;30;20133;-79
2023/03/20 15:49:55;;;;;;;8.85;1.15;;;16.80;67.50;;;;;;4730863;30;20056;-75
2023/03/20 15:52:25;;;;;;;6.10;0.90;;;16.80;67.60;;;;;;4737753;30;20056;-75
2023/03/20 15:54:51;;;;;;;12.00;1.73;;;16.80;67.60;;;;;;4730967;30;20369;-76
2023/03/20 15:57:29;;;;;;;6.90;0.90;;;16.80;67.60;;;;;;4727708;30;20059;-76
2023/03/20 15:59:55;;;;;;;7.10;1.00;;;16.80;67.90;;;;;;4730767;30;20060;-76
2023/03/20 16:02:21;;;;;;;10.65;1.55;;;16.70;68.10;;;;;;4722235;30;20048;-75
2023/03/20 16:04:50;;;;;;;9.63;1.08;;;16.70;68.30;;;;;;4730974;30;20128;-74
2023/03/20 16:07:29;;;;;;;5.03;0.73;;;16.70;68.40;;;;;;4723451;30;20081;-75
2023/03/20 16:09:56;;;;;;;7.68;1.23;;;16.70;68.60;;;;;;4736197;30;20143;-75
2023/03/20 16:12:22;;;;;;;12.07;2.60;;;16.70;68.80;;;;;;4738422;30;20099;-75
2023/03/20 16:14:50;;;;;;;14.68;1.92;;;16.70;69.00;;;;;;4723666;30;20111;-79
2023/03/20 16:17:16;;;;;;;7.97;1.10;;;16.70;69.00;;;;;;4738936;30;20057;-77
2023/03/20 16:19:43;;;;;;;7.85;1.73;;;16.70;69.20;;;;;;4738677;30;20053;-74
2023/03/20 16:22:26;;;;;;;11.73;1.80;;;16.70;69.20;;;;;;4738445;30;20070;-74
2023/03/20 16:24:58;;;;;;;10.05;1.77;;;16.70;69.40;;;;;;4738497;30;20052;-75
2023/03/20 16:27:33;;;;;;;9.77;1.35;;;16.70;69.40;;;;;;4737268;30;20058;-76
2023/03/20 16:30:08;;;;;;;11.57;2.03;;;16.70;69.50;;;;;;4737616;30;20068;-76
2023/03/20 16:32:38;;;;;;;15.18;1.80;;;16.60;69.70;;;;;;4738177;30;20083;-75
2023/03/20 16:35:14;;;;;;;14.55;1.67;;;16.60;69.80;;;;;;4738253;30;20596;-74
2023/03/20 16:37:50;;;;;;;26.17;2.17;;;16.60;70.00;;;;;;4738398;30;20052;-74
2023/03/20 16:40:35;;;;;;;22.85;2.45;;;16.60;70.40;;;;;;4735394;30;20053;-76
2023/03/20 16:43:17;;;;;;;27.40;2.33;;;16.60;70.40;;;;;;4721683;30;20210;-74
2023/03/20 16:45:52;;;;;;;22.65;3.40;;;16.50;70.90;;;;;;4732113;30;20057;-80
2023/03/20 16:48:30;;;;;;;28.02;3.30;;;16.60;71.20;;;;;;4738261;30;20056;-78
2023/03/20 16:51:18;;;;;;;19.73;2.60;;;16.50;71.10;;;;;;4737805;30;20071;-79
2023/03/20 16:53:49;;;;;;;21.00;2.35;;;16.50;71.10;;;;;;4737758;30;20453;-76
2023/03/20 16:56:41;;;;;;;18.40;2.35;;;16.50;71.10;;;;;;4738055;30;20076;-78
2023/03/20 16:59:10;;;;;;;23.02;2.55;;;16.50;71.30;;;;;;4735410;30;20056;-77
2023/03/20 17:01:42;;;;;;;19.30;2.83;;;16.50;71.40;;;;;;4738041;30;20060;-78
2023/03/20 17:04:27;;;;;;;20.90;2.72;;;16.40;71.40;;;;;;4737767;30;20056;-76
2023/03/20 17:06:57;;;;;;;25.55;3.05;;;16.40;71.50;;;;;;4737808;30;20110;-81
2023/03/20 17:09:26;;;;;;;25.17;3.53;;;16.40;72.70;;;;;;4736643;30;20125;-79
2023/03/20 17:12:11;;;;;;;23.23;2.25;;;16.50;72.20;;;;;;4739777;30;20473;-77
2023/03/20 17:14:39;;;;;;;16.73;2.47;;;16.50;71.60;;;;;;4739951;30;20066;-75
2023/03/20 17:17:16;;;;;;;18.98;2.05;;;16.50;71.30;;;;;;4739719;30;20083;-79
2023/03/20 17:19:42;;;;;;;27.05;3.30;;;16.40;70.90;;;;;;4739804;30;20052;-79
2023/03/20 17:22:24;;;;;;;18.27;2.53;;;16.40;70.80;;;;;;4739873;30;20075;-79
2023/03/20 17:24:50;;;;;;;18.77;3.22;;;16.40;70.60;;;;;;4755597;30;20376;-80
2023/03/20 17:27:17;;;;;;;18.60;1.80;;;16.40;70.40;;;;;;4755478;30;20048;-80
2023/03/20 17:29:44;;;;;;;16.77;2.20;;;16.40;70.20;;;;;;4740143;30;20060;-79
2023/03/20 17:32:15;;;;;;;15.55;1.60;;;16.40;70.10;;;;;;4755447;30;20082;-79
2023/03/20 17:34:42;;;;;;;13.10;1.75;;;16.40;70.00;;;;;;4739413;30;20071;-80
2023/03/20 17:37:14;;;;;;;8.85;1.58;;;16.40;69.80;;;;;;4755478;30;20060;-79
2023/03/20 17:39:40;;;;;;;11.65;1.55;;;16.40;69.70;;;;;;4750988;30;20096;-78
2023/03/20 17:42:23;;;;;;;18.20;2.40;;;16.30;69.60;;;;;;4722125;30;20059;-78
2023/03/20 17:44:49;;;;;;;13.13;1.75;;;16.40;70.20;;;;;;4737687;30;20056;-80
2023/03/20 17:47:20;;;;;;;10.27;1.98;;;16.30;69.40;;;;;;4736222;30;20053;-80
2023/03/20 17:49:46;;;;;;;17.02;1.30;;;16.30;69.90;;;;;;4737511;30;20069;-81
2023/03/20 17:52:15;;;;;;;9.05;1.40;;;16.40;69.30;;;;;;4737078;30;20052;-79
2023/03/20 17:54:41;;;;;;;8.95;1.48;;;16.30;69.10;;;;;;4737335;30;20090;-79
2023/03/20 17:57:32;;;;;;;7.32;1.25;;;16.30;69.10;;;;;;4736797;30;20059;-79
2023/03/20 17:59:58;;;;;;;9.90;1.35;;;16.30;68.90;;;;;;4714917;30;20099;-80
2023/03/20 18:02:24;;;;;;;3.75;2.22;;;16.30;68.60;;;;;;4750543;30;20060;-81
2023/03/20 18:04:50;;;;;;;2.95;2.25;;;16.30;66.90;;;;;;4742847;30;20496;-81
